Time;durP1;ratioP1;P1;durP2;ratioP2;P2;SDS_P1;SDS_P2;PMS_P1;PMS_P2;Temp;Humidity;BMP_temperature;BMP_pressure;BME280_temperature;BME280_humidity;BME280_pressure;Samples;Min_cycle;Max_cycle;Signal;HPM_P1;HPM_P2
2021/01/03 00:01:57;;;;;;;29.83;11.27;;;4.90;99.90;;;;;;5018702;28;20509;-64
2021/01/03 00:04:23;;;;;;;25.05;9.70;;;4.80;99.90;;;;;;5019007;28;20123;-65
2021/01/03 00:06:53;;;;;;;25.52;9.63;;;4.80;99.90;;;;;;5021066;28;20053;-65
2021/01/03 00:09:19;;;;;;;22.48;9.88;;;4.80;99.90;;;;;;5016469;28;20091;-64
2021/01/03 00:11:45;;;;;;;23.58;9.27;;;4.90;99.90;;;;;;5017729;28;20505;-64
2021/01/03 00:14:11;;;;;;;25.80;9.70;;;4.90;99.90;;;;;;5021578;28;20091;-65
2021/01/03 00:16:36;;;;;;;28.35;10.73;;;5.00;99.90;;;;;;5019011;28;20037;-64
2021/01/03 00:19:03;;;;;;;28.10;10.77;;;5.00;99.90;;;;;;5020512;28;20048;-64
2021/01/03 00:21:29;;;;;;;26.60;9.93;;;5.00;99.90;;;;;;5019827;28;20031;-65
2021/01/03 00:23:54;;;;;;;27.85;10.73;;;5.00;99.90;;;;;;5021420;28;20037;-65
2021/01/03 00:26:20;;;;;;;37.55;10.80;;;4.90;99.90;;;;;;5020041;28;20042;-64
2021/01/03 00:28:46;;;;;;;24.95;10.13;;;4.90;99.90;;;;;;5018137;28;20104;-65
2021/01/03 00:31:11;;;;;;;25.33;10.07;;;4.90;99.90;;;;;;5021878;28;20036;-65
2021/01/03 00:33:37;;;;;;;31.63;10.15;;;4.90;99.90;;;;;;5018455;28;20037;-64
2021/01/03 00:36:04;;;;;;;32.17;12.65;;;4.90;99.90;;;;;;5020467;28;20509;-65
2021/01/03 00:38:29;;;;;;;25.45;11.40;;;5.00;99.90;;;;;;5018867;28;20041;-64
2021/01/03 00:40:55;;;;;;;29.55;10.93;;;4.90;99.90;;;;;;5021003;28;20585;-64
2021/01/03 00:43:20;;;;;;;32.80;11.45;;;4.90;99.90;;;;;;5019853;28;20021;-65
2021/01/03 00:45:46;;;;;;;35.85;11.98;;;4.90;99.90;;;;;;5017148;28;20026;-65
2021/01/03 00:48:12;;;;;;;34.33;13.80;;;4.90;99.90;;;;;;5021250;28;20054;-65
2021/01/03 00:50:37;;;;;;;39.83;11.95;;;4.90;99.90;;;;;;5017713;28;20067;-65
2021/01/03 00:53:04;;;;;;;42.83;13.75;;;4.90;99.90;;;;;;5022644;28;20600;-64
2021/01/03 00:55:29;;;;;;;41.53;12.40;;;4.90;99.90;;;;;;5019155;28;20036;-63
2021/01/03 00:57:55;;;;;;;38.28;13.45;;;4.90;99.90;;;;;;5021431;28;20405;-65
2021/01/03 01:00:25;;;;;;;35.60;11.40;;;4.90;99.90;;;;;;5019760;28;20033;-65
2021/01/03 01:02:50;;;;;;;34.22;11.45;;;4.90;99.90;;;;;;5017278;28;20026;-65
2021/01/03 01:05:18;;;;;;;38.50;11.98;;;4.90;99.90;;;;;;5020048;28;20037;-66
2021/01/03 01:07:43;;;;;;;31.38;10.63;;;4.90;99.90;;;;;;5017032;28;20026;-65
2021/01/03 01:10:13;;;;;;;32.70;10.75;;;4.80;99.90;;;;;;5020276;28;20025;-65
2021/01/03 01:12:39;;;;;;;32.20;10.30;;;4.90;99.90;;;;;;5017253;28;20398;-64
2021/01/03 01:15:07;;;;;;;29.75;10.27;;;4.90;99.90;;;;;;5023890;28;20037;-65
2021/01/03 01:17:33;;;;;;;39.83;11.52;;;4.80;99.90;;;;;;5019853;28;20025;-63
2021/01/03 01:19:58;;;;;;;29.70;11.63;;;4.80;99.90;;;;;;5018935;28;20120;-65
2021/01/03 01:22:24;;;;;;;32.58;11.35;;;4.80;99.90;;;;;;5018126;28;20053;-64
2021/01/03 01:24:49;;;;;;;34.15;12.20;;;4.80;99.90;;;;;;5019634;28;20577;-64
2021/01/03 01:27:15;;;;;;;33.00;11.27;;;4.70;99.90;;;;;;5016176;28;20129;-65
2021/01/03 01:29:40;;;;;;;40.63;12.13;;;4.70;99.90;;;;;;5020018;28;20068;-65
2021/01/03 01:32:06;;;;;;;35.88;11.93;;;4.70;99.90;;;;;;5016461;28;20042;-64
2021/01/03 01:34:32;;;;;;;30.88;11.02;;;4.70;99.90;;;;;;5019384;28;20465;-64
2021/01/03 01:36:57;;;;;;;32.85;11.55;;;4.60;99.90;;;;;;5017131;28;20401;-64
2021/01/03 01:39:23;;;;;;;34.75;11.93;;;4.70;99.90;;;;;;5018134;28;20042;-64
2021/01/03 01:41:48;;;;;;;36.88;12.07;;;4.70;99.90;;;;;;5019368;28;20034;-65
2021/01/03 01:44:14;;;;;;;33.58;10.48;;;4.70;99.90;;;;;;5017247;28;20498;-64
2021/01/03 01:46:51;;;;;;;31.98;12.13;;;4.60;99.90;;;;;;5018456;28;20513;-64
2021/01/03 01:49:16;;;;;;;34.25;12.38;;;4.60;99.90;;;;;;5012270;28;20034;-64
2021/01/03 01:51:46;;;;;;;33.50;11.13;;;4.60;99.90;;;;;;5018682;28;20072;-65
2021/01/03 01:54:20;;;;;;;29.38;10.50;;;4.60;99.90;;;;;;5016658;28;20117;-65
2021/01/03 01:57:05;;;;;;;33.75;11.20;;;4.50;99.90;;;;;;5019971;28;20116;-65
2021/01/03 01:59:43;;;;;;;32.50;11.23;;;4.50;99.90;;;;;;5018557;28;20042;-64
2021/01/03 02:02:23;;;;;;;34.75;10.93;;;4.40;99.90;;;;;;5016804;28;20410;-67
2021/01/03 02:05:15;;;;;;;32.33;12.80;;;4.40;99.90;;;;;;5014582;28;20033;-64
2021/01/03 02:07:46;;;;;;;31.85;11.75;;;4.40;99.90;;;;;;5016629;28;20050;-64
2021/01/03 02:10:16;;;;;;;;;;;4.40;99.90;;;;;;5013489;28;20104;-64
2021/01/03 02:12:44;;;;;;;29.63;10.88;;;4.40;99.90;;;;;;5012437;28;20011;-63
2021/01/03 02:15:24;;;;;;;33.22;11.70;;;4.40;99.90;;;;;;5012435;28;20410;-65
2021/01/03 02:17:50;;;;;;;33.45;10.10;;;4.30;99.90;;;;;;5017692;28;20896;-64
2021/01/03 02:20:16;;;;;;;36.42;11.60;;;4.40;99.90;;;;;;5023057;28;20114;-65
2021/01/03 02:22:48;;;;;;;36.30;11.90;;;4.30;99.90;;;;;;5019814;28;20045;-65
2021/01/03 02:25:15;;;;;;;33.45;11.23;;;4.30;99.90;;;;;;5017069;28;20045;-65
2021/01/03 02:28:07;;;;;;;47.30;12.93;;;4.30;99.90;;;;;;5021585;28;20379;-65
2021/01/03 02:30:34;;;;;;;35.72;11.48;;;4.30;99.90;;;;;;5022443;28;20034;-65
2021/01/03 02:33:17;;;;;;;31.00;10.80;;;4.30;99.90;;;;;;5020758;28;20052;-64
2021/01/03 02:35:45;;;;;;;29.13;10.48;;;4.30;99.90;;;;;;5014961;28;20525;-64
2021/01/03 02:38:12;;;;;;;33.03;12.68;;;4.30;99.90;;;;;;5023183;28;20045;-65
2021/01/03 02:40:38;;;;;;;32.22;12.52;;;4.40;99.90;;;;;;5019491;28;20022;-64
2021/01/03 02:43:03;;;;;;;38.15;11.18;;;4.40;99.90;;;;;;5022542;28;20032;-64
2021/01/03 02:45:31;;;;;;;33.85;12.43;;;4.40;99.90;;;;;;5019412;28;20049;-65
2021/01/03 02:48:01;;;;;;;34.58;11.43;;;4.50;99.90;;;;;;5021148;28;20546;-65
2021/01/03 02:50:27;;;;;;;35.35;12.13;;;4.50;99.90;;;;;;5019840;28;20055;-65
2021/01/03 02:52:53;;;;;;;36.58;11.98;;;4.40;99.90;;;;;;5020715;28;20500;-64
2021/01/03 02:55:19;;;;;;;37.65;11.93;;;4.40;99.90;;;;;;5022313;28;20033;-65
2021/01/03 02:57:46;;;;;;;34.63;11.25;;;4.40;99.90;;;;;;5018704;28;20032;-65
2021/01/03 03:00:20;;;;;;;34.13;12.65;;;4.50;99.90;;;;;;5022891;28;20076;-64
2021/01/03 03:02:47;;;;;;;38.38;11.68;;;4.40;99.90;;;;;;5019755;28;20553;-64
2021/01/03 03:05:13;;;;;;;37.15;13.02;;;4.50;99.90;;;;;;5022725;28;20456;-64
2021/01/03 03:07:38;;;;;;;42.47;12.73;;;4.50;99.90;;;;;;5018432;28;20402;-64
2021/01/03 03:10:04;;;;;;;38.55;13.65;;;4.50;99.90;;;;;;5022668;28;20035;-65
2021/01/03 03:12:30;;;;;;;38.80;12.55;;;4.50;99.90;;;;;;5018490;28;21524;-64
2021/01/03 03:14:55;;;;;;;38.55;14.25;;;4.50;99.90;;;;;;5025706;28;20068;-64
2021/01/03 03:17:21;;;;;;;35.55;12.77;;;4.50;99.90;;;;;;5020476;28;20052;-65
2021/01/03 03:19:46;;;;;;;38.10;12.35;;;4.50;99.90;;;;;;5019749;28;20037;-64
2021/01/03 03:22:12;;;;;;;38.30;13.00;;;4.50;99.90;;;;;;5019368;28;20521;-64
2021/01/03 03:24:37;;;;;;;35.03;13.50;;;4.50;99.90;;;;;;5021154;28;20045;-64
2021/01/03 03:27:04;;;;;;;41.25;13.43;;;4.50;99.90;;;;;;5018669;28;20038;-65
2021/01/03 03:29:30;;;;;;;43.35;13.82;;;4.50;99.90;;;;;;5020535;28;20063;-64
2021/01/03 03:31:56;;;;;;;36.72;11.70;;;4.60;99.90;;;;;;5019659;28;20041;-63
2021/01/03 03:34:23;;;;;;;34.92;12.05;;;4.60;99.90;;;;;;5020287;28;20042;-65
2021/01/03 03:36:54;;;;;;;37.60;13.07;;;4.50;99.90;;;;;;5020091;28;20033;-65
2021/01/03 03:39:20;;;;;;;32.40;11.73;;;4.50;99.90;;;;;;5018644;28;20080;-64
2021/01/03 03:41:45;;;;;;;37.47;11.73;;;4.50;99.90;;;;;;5019552;28;20061;-65
2021/01/03 03:44:11;;;;;;;35.97;12.73;;;4.50;99.90;;;;;;5017929;28;20732;-65
2021/01/03 03:46:37;;;;;;;32.58;10.40;;;4.50;99.90;;;;;;5022303;28;20030;-65
2021/01/03 03:49:02;;;;;;;41.92;12.40;;;4.40;99.90;;;;;;5016833;28;20057;-63
2021/01/03 03:51:28;;;;;;;38.85;11.95;;;4.50;99.90;;;;;;5021100;28;20029;-64
2021/01/03 03:53:54;;;;;;;39.63;12.52;;;4.40;99.90;;;;;;5019107;28;20032;-65
2021/01/03 03:56:19;;;;;;;34.92;11.88;;;4.40;99.90;;;;;;5019990;28;20119;-65
2021/01/03 03:58:45;;;;;;;39.15;11.63;;;4.40;99.90;;;;;;5020549;28;20030;-65
2021/01/03 04:01:11;;;;;;;34.00;13.02;;;4.50;99.90;;;;;;5017275;28;20034;-65
2021/01/03 04:03:36;;;;;;;38.17;11.60;;;4.50;99.90;;;;;;5021485;28;20040;-64
2021/01/03 04:06:03;;;;;;;37.00;12.02;;;4.50;99.90;;;;;;5017781;28;20112;-65
2021/01/03 04:08:29;;;;;;;42.95;13.55;;;4.50;99.90;;;;;;5020883;28;20176;-65
2021/01/03 04:10:55;;;;;;;36.58;12.63;;;4.40;99.90;;;;;;5018992;28;20640;-65
2021/01/03 04:13:20;;;;;;;30.00;10.63;;;4.50;99.90;;;;;;5019788;28;20111;-64
2021/01/03 04:15:46;;;;;;;33.40;10.65;;;4.50;99.90;;;;;;5020283;28;20379;-65
2021/01/03 04:18:12;;;;;;;27.83;11.30;;;4.40;99.90;;;;;;5018245;28;20062;-64
2021/01/03 04:20:38;;;;;;;36.75;11.80;;;4.40;99.90;;;;;;5019623;28;20033;-64
2021/01/03 04:23:05;;;;;;;27.75;10.27;;;4.40;99.90;;;;;;5017812;28;20096;-63
2021/01/03 04:25:31;;;;;;;31.75;10.00;;;4.40;99.90;;;;;;5024942;28;20022;-62
2021/01/03 04:27:56;;;;;;;33.38;11.88;;;4.40;99.90;;;;;;5020297;28;20375;-62
2021/01/03 04:30:24;;;;;;;29.75;10.18;;;4.40;99.90;;;;;;5018853;28;20076;-64
2021/01/03 04:32:51;;;;;;;35.28;11.25;;;4.50;99.90;;;;;;5024411;28;20037;-64
2021/01/03 04:35:18;;;;;;;36.08;10.65;;;4.50;99.90;;;;;;5019006;28;20132;-64
2021/01/03 04:37:44;;;;;;;32.60;11.40;;;4.50;99.90;;;;;;5018274;28;20036;-63
2021/01/03 04:40:26;;;;;;;34.00;10.80;;;4.50;99.90;;;;;;5023549;28;20405;-62
2021/01/03 04:42:54;;;;;;;38.17;10.15;;;4.50;99.90;;;;;;5019709;28;20084;-63
2021/01/03 04:45:39;;;;;;;34.88;11.73;;;4.40;99.90;;;;;;5018682;28;20029;-62
2021/01/03 04:48:09;;;;;;;34.95;11.18;;;4.40;99.90;;;;;;5013549;28;20120;-64
2021/01/03 04:50:44;;;;;;;35.83;11.80;;;4.40;99.90;;;;;;5020943;28;20088;-63
2021/01/03 04:53:31;;;;;;;40.65;12.60;;;4.50;99.90;;;;;;5014760;28;20120;-63
2021/01/03 04:56:00;;;;;;;38.35;12.75;;;4.40;99.90;;;;;;5018024;28;20042;-63
2021/01/03 04:58:46;;;;;;;40.38;11.77;;;4.40;99.90;;;;;;5020169;28;20049;-64
2021/01/03 05:01:49;;;;;;;36.13;11.68;;;4.50;99.90;;;;;;5015777;28;20045;-63
2021/01/03 05:04:45;;;;;;;40.10;12.18;;;4.50;99.90;;;;;;5018344;28;20597;-63
2021/01/03 05:07:33;;;;;;;32.20;11.68;;;4.40;99.90;;;;;;5015520;28;20037;-63
2021/01/03 05:10:09;;;;;;;26.38;10.85;;;4.40;99.90;;;;;;5016360;28;20033;-63
2021/01/03 05:13:03;;;;;;;28.00;9.65;;;4.40;99.90;;;;;;5014058;28;20042;-63
2021/01/03 05:15:32;;;;;;;30.45;10.07;;;4.40;99.90;;;;;;5012494;28;20026;-63
2021/01/03 05:17:58;;;;;;;34.40;10.73;;;4.40;99.90;;;;;;5020341;28;20482;-63
2021/01/03 05:20:24;;;;;;;29.83;9.45;;;4.40;99.90;;;;;;5017211;28;20386;-63
2021/01/03 05:22:50;;;;;;;28.38;10.23;;;4.40;99.90;;;;;;5019006;28;20054;-63
2021/01/03 05:25:19;;;;;;;30.75;9.30;;;4.40;99.90;;;;;;5018419;28;20533;-64
2021/01/03 05:28:06;;;;;;;26.60;9.25;;;4.30;99.90;;;;;;5018641;28;20029;-62
2021/01/03 05:30:32;;;;;;;25.60;10.18;;;4.30;99.90;;;;;;5013245;28;20076;-63
2021/01/03 05:33:08;;;;;;;26.98;9.93;;;4.30;99.90;;;;;;5020516;28;20038;-64
2021/01/03 05:35:40;;;;;;;26.25;8.48;;;4.30;99.90;;;;;;5013381;28;20117;-63
2021/01/03 05:38:07;;;;;;;31.63;10.48;;;4.30;99.90;;;;;;5019979;28;20038;-63
2021/01/03 05:40:43;;;;;;;29.00;9.65;;;4.30;99.90;;;;;;5023105;28;20411;-62
2021/01/03 05:43:21;;;;;;;26.30;9.48;;;4.30;99.90;;;;;;5017992;28;20034;-62
2021/01/03 05:46:07;;;;;;;30.02;10.38;;;4.30;99.90;;;;;;5016420;28;20121;-62
2021/01/03 05:48:43;;;;;;;28.73;9.57;;;4.20;99.90;;;;;;5012937;28;20042;-62
2021/01/03 05:51:49;;;;;;;27.83;9.88;;;4.30;99.90;;;;;;5018036;28;20037;-62
2021/01/03 05:54:23;;;;;;;27.63;8.75;;;4.20;99.90;;;;;;5020704;28;20041;-62
2021/01/03 05:56:49;;;;;;;27.45;9.93;;;4.20;99.90;;;;;;5021489;28;20481;-63
2021/01/03 05:59:27;;;;;;;29.95;11.13;;;4.20;99.90;;;;;;5022097;28;20034;-62
2021/01/03 06:02:18;;;;;;;30.75;9.82;;;4.20;99.90;;;;;;5020132;28;20038;-64
2021/01/03 06:04:44;;;;;;;28.00;9.50;;;4.20;99.90;;;;;;5020792;28;20034;-62
2021/01/03 06:07:26;;;;;;;36.25;11.80;;;4.20;99.90;;;;;;5022124;28;20536;-63
2021/01/03 06:09:52;;;;;;;32.92;11.15;;;4.20;99.90;;;;;;5023320;28;20065;-63
2021/01/03 06:12:29;;;;;;;35.13;11.98;;;4.10;99.90;;;;;;5021027;28;20102;-62
2021/01/03 06:15:01;;;;;;;33.22;10.32;;;4.20;99.90;;;;;;5018125;28;20041;-68
2021/01/03 06:17:27;;;;;;;34.60;12.40;;;4.20;99.90;;;;;;5018147;28;20038;-64
2021/01/03 06:20:00;;;;;;;37.58;11.60;;;4.20;99.90;;;;;;5024310;28;20397;-63
2021/01/03 06:22:25;;;;;;;39.17;13.20;;;4.20;99.90;;;;;;5016625;28;20042;-63
2021/01/03 06:24:51;;;;;;;35.45;12.70;;;4.30;99.90;;;;;;5023110;28;20060;-63
2021/01/03 06:27:29;;;;;;;37.45;12.18;;;4.30;99.90;;;;;;5020741;28;20037;-63
2021/01/03 06:30:04;;;;;;;40.85;13.40;;;4.30;99.90;;;;;;5016241;28;20176;-63
2021/01/03 06:32:41;;;;;;;36.95;12.15;;;4.20;99.90;;;;;;5016583;28;20033;-63
2021/01/03 06:35:29;;;;;;;37.88;13.27;;;4.20;99.90;;;;;;5021591;28;20037;-63
2021/01/03 06:38:03;;;;;;;37.30;12.38;;;4.30;99.90;;;;;;5015827;28;20045;-63
2021/01/03 06:40:47;;;;;;;40.28;13.30;;;4.20;99.90;;;;;;5015686;28;20541;-63
2021/01/03 06:43:34;;;;;;;40.45;13.13;;;4.30;99.90;;;;;;5019302;28;20069;-65
2021/01/03 06:46:11;;;;;;;32.40;12.90;;;4.30;99.90;;;;;;5016476;28;20038;-64
2021/01/03 06:49:06;;;;;;;37.65;12.80;;;4.20;99.90;;;;;;5020453;28;20043;-63
2021/01/03 06:52:02;;;;;;;42.03;13.82;;;4.20;99.90;;;;;;5017045;28;20430;-63
2021/01/03 06:55:01;;;;;;;45.53;14.23;;;4.20;99.90;;;;;;5019116;28;20104;-63
2021/01/03 06:57:49;;;;;;;38.57;13.47;;;4.20;99.90;;;;;;5015296;28;20064;-63
2021/01/03 07:00:19;;;;;;;47.97;16.70;;;4.10;99.90;;;;;;5020943;28;20057;-63
2021/01/03 07:02:54;;;;;;;47.13;15.35;;;4.10;99.90;;;;;;5019517;28;20120;-63
2021/01/03 07:05:19;;;;;;;40.83;14.77;;;4.10;99.90;;;;;;5022536;28;20056;-64
2021/01/03 07:07:58;;;;;;;48.42;15.35;;;4.10;99.90;;;;;;5019692;28;20402;-64
2021/01/03 07:10:37;;;;;;;41.53;14.93;;;4.10;99.90;;;;;;5022720;28;20033;-64
2021/01/03 07:13:23;;;;;;;39.65;14.35;;;4.10;99.90;;;;;;5018163;28;20387;-63
2021/01/03 07:15:49;;;;;;;42.15;15.00;;;4.10;99.90;;;;;;5018786;28;20116;-62
2021/01/03 07:18:29;;;;;;;46.97;15.60;;;4.10;99.90;;;;;;5021506;28;20130;-63
2021/01/03 07:21:03;;;;;;;42.90;15.47;;;4.10;99.90;;;;;;5018649;28;20038;-65
2021/01/03 07:23:37;;;;;;;46.97;15.18;;;4.10;99.90;;;;;;5031451;28;20069;-63
2021/01/03 07:26:18;;;;;;;38.33;14.30;;;4.20;99.90;;;;;;5019404;28;20049;-63
2021/01/03 07:29:12;;;;;;;43.08;14.23;;;4.20;99.90;;;;;;5021274;28;20422;-63
2021/01/03 07:31:40;;;;;;;50.30;14.98;;;4.10;99.90;;;;;;5015070;28;20125;-64
2021/01/03 07:34:17;;;;;;;51.13;15.25;;;4.10;99.90;;;;;;5019204;28;20041;-62
2021/01/03 07:37:10;;;;;;;47.67;15.18;;;4.10;99.90;;;;;;5020450;28;20080;-66
2021/01/03 07:40:14;;;;;;;38.28;13.15;;;4.10;99.90;;;;;;5017984;28;20401;-63
2021/01/03 07:42:45;;;;;;;43.78;15.18;;;4.10;99.90;;;;;;5018447;28;20041;-63
2021/01/03 07:45:14;;;;;;;40.72;12.50;;;4.10;99.90;;;;;;5019352;28;20133;-65
2021/01/03 07:47:43;;;;;;;43.45;14.38;;;4.10;99.90;;;;;;5017298;28;20513;-63
2021/01/03 07:50:23;;;;;;;41.42;13.75;;;4.20;99.90;;;;;;5020508;28;20164;-64
2021/01/03 07:52:54;;;;;;;30.00;12.02;;;4.20;99.90;;;;;;5016234;28;20038;-63
2021/01/03 07:55:22;;;;;;;39.72;14.68;;;4.20;99.90;;;;;;5020239;28;20034;-62
2021/01/03 07:57:53;;;;;;;34.92;13.05;;;4.20;99.90;;;;;;5014707;28;20442;-65
2021/01/03 08:00:21;;;;;;;41.40;13.38;;;4.20;99.90;;;;;;5017884;28;20046;-62
2021/01/03 08:02:46;;;;;;;34.35;11.95;;;4.30;99.90;;;;;;5010639;28;20037;-65
2021/01/03 08:05:13;;;;;;;40.22;13.45;;;4.30;99.90;;;;;;5010384;28;20034;-63
2021/01/03 08:07:38;;;;;;;39.53;13.73;;;4.30;99.90;;;;;;5015000;28;20031;-71
2021/01/03 08:10:11;;;;;;;39.22;13.30;;;4.30;99.90;;;;;;5011235;28;20025;-63
2021/01/03 08:12:56;;;;;;;38.85;12.73;;;4.40;99.90;;;;;;5019464;28;20030;-63
2021/01/03 08:15:28;;;;;;;43.38;14.27;;;4.30;99.90;;;;;;5019376;28;20032;-63
2021/01/03 08:18:01;;;;;;;39.58;12.63;;;4.30;99.90;;;;;;5017709;28;20044;-63
2021/01/03 08:20:27;;;;;;;37.10;12.93;;;4.30;99.90;;;;;;5020795;28;20095;-64
2021/01/03 08:22:53;;;;;;;44.88;13.50;;;4.30;99.90;;;;;;5019534;28;20030;-64
2021/01/03 08:25:27;;;;;;;41.28;13.35;;;4.30;99.90;;;;;;5019579;28;20048;-63
2021/01/03 08:28:10;;;;;;;38.10;14.30;;;4.30;99.90;;;;;;5020935;28;20498;-63
2021/01/03 08:30:37;;;;;;;43.38;14.52;;;4.20;99.90;;;;;;5017225;28;20030;-63
2021/01/03 08:33:29;;;;;;;38.33;14.68;;;4.20;99.90;;;;;;5018850;28;20037;-62
2021/01/03 08:35:55;;;;;;;41.92;13.52;;;4.30;99.90;;;;;;5017392;28;20045;-63
2021/01/03 08:38:25;;;;;;;46.40;14.52;;;4.20;99.90;;;;;;5018536;28;20041;-63
2021/01/03 08:40:51;;;;;;;38.42;14.02;;;4.30;99.90;;;;;;5018216;28;20026;-63
2021/01/03 08:43:20;;;;;;;43.70;14.73;;;4.30;99.90;;;;;;5014661;28;20478;-63
2021/01/03 08:45:49;;;;;;;43.88;14.57;;;4.40;99.90;;;;;;5014832;28;20040;-62
2021/01/03 08:48:24;;;;;;;41.38;14.48;;;4.30;99.90;;;;;;5022165;28;20022;-65
2021/01/03 08:51:03;;;;;;;44.85;13.93;;;4.30;99.90;;;;;;5018974;28;20051;-62
2021/01/03 08:53:28;;;;;;;39.17;14.98;;;4.40;99.90;;;;;;5020036;28;20026;-62
2021/01/03 08:56:07;;;;;;;40.60;14.27;;;4.40;99.90;;;;;;5019598;28;20040;-63
2021/01/03 08:58:38;;;;;;;44.50;15.65;;;4.40;99.90;;;;;;5017554;28;20644;-63
2021/01/03 09:01:13;;;;;;;45.78;15.18;;;4.40;99.90;;;;;;5020224;28;20025;-63
2021/01/03 09:03:40;;;;;;;40.65;15.43;;;4.40;99.90;;;;;;5011536;28;20100;-63
2021/01/03 09:06:08;;;;;;;40.25;13.98;;;4.40;99.90;;;;;;5012166;28;20399;-64
2021/01/03 09:08:37;;;;;;;32.05;13.35;;;4.40;99.90;;;;;;5015535;28;20026;-65
2021/01/03 09:11:08;;;;;;;39.50;13.88;;;4.40;99.90;;;;;;5018122;28;20034;-62
2021/01/03 09:13:35;;;;;;;41.85;14.75;;;4.40;99.90;;;;;;5014140;28;20541;-63
2021/01/03 09:16:09;;;;;;;37.65;15.00;;;4.40;99.90;;;;;;5014275;28;20026;-63
2021/01/03 09:18:53;;;;;;;39.33;14.10;;;4.40;99.90;;;;;;5019206;28;20115;-63
2021/01/03 09:21:18;;;;;;;43.75;14.80;;;4.40;99.90;;;;;;5017447;28;20030;-63
2021/01/03 09:23:47;;;;;;;46.53;14.25;;;4.40;99.90;;;;;;5012386;28;20030;-63
2021/01/03 09:26:13;;;;;;;43.72;14.90;;;4.50;99.90;;;;;;5020494;28;20033;-62
2021/01/03 09:28:41;;;;;;;42.72;14.95;;;4.50;99.90;;;;;;5016395;28;20410;-63
2021/01/03 09:31:17;;;;;;;36.70;13.85;;;4.50;99.90;;;;;;5023452;28;20026;-63
2021/01/03 09:34:07;;;;;;;45.38;14.85;;;4.50;99.90;;;;;;5024042;28;20611;-63
2021/01/03 09:36:47;;;;;;;40.25;14.25;;;4.50;99.90;;;;;;5023592;28;20065;-64
2021/01/03 09:39:36;;;;;;;42.22;14.40;;;4.50;99.90;;;;;;5032189;28;20038;-65
2021/01/03 09:42:29;;;;;;;34.78;13.60;;;4.50;99.90;;;;;;5025015;28;20037;-65
2021/01/03 09:45:22;;;;;;;36.85;12.88;;;4.50;99.90;;;;;;5024628;28;20045;-63
2021/01/03 09:47:49;;;;;;;38.75;14.25;;;4.60;99.90;;;;;;5017481;28;20524;-63
2021/01/03 09:50:26;;;;;;;30.92;11.80;;;4.70;99.90;;;;;;5017826;28;20022;-63
2021/01/03 09:53:16;;;;;;;30.95;12.77;;;4.70;99.90;;;;;;5030282;28;20060;-63
2021/01/03 09:55:58;;;;;;;33.67;12.27;;;4.70;99.90;;;;;;5023479;28;20088;-64
2021/01/03 09:58:34;;;;;;;31.33;11.82;;;4.70;99.90;;;;;;5021797;28;20026;-63
2021/01/03 10:00:59;;;;;;;31.50;11.98;;;4.80;99.90;;;;;;5021881;28;20147;-63
2021/01/03 10:03:34;;;;;;;31.25;12.07;;;4.70;99.90;;;;;;5021640;28;20117;-63
2021/01/03 10:06:19;;;;;;;29.63;11.90;;;4.80;99.90;;;;;;5021611;28;20058;-63
2021/01/03 10:08:46;;;;;;;28.10;11.30;;;4.80;99.90;;;;;;5016852;28;20030;-63
2021/01/03 10:11:26;;;;;;;23.80;10.27;;;4.80;99.90;;;;;;5027369;28;20129;-63
2021/01/03 10:13:57;;;;;;;27.75;9.80;;;4.90;99.90;;;;;;5019202;28;20558;-63
2021/01/03 10:16:26;;;;;;;27.40;10.38;;;4.90;99.90;;;;;;5024207;28;20037;-65
2021/01/03 10:18:51;;;;;;;23.98;9.70;;;5.00;99.90;;;;;;5021228;28;20034;-63
2021/01/03 10:21:28;;;;;;;21.65;8.95;;;5.00;99.90;;;;;;5021883;28;20033;-63
2021/01/03 10:24:16;;;;;;;23.50;9.15;;;4.80;99.90;;;;;;5053596;22;20045;-60
2021/01/03 10:26:44;;;;;;;21.20;8.55;;;4.90;99.90;;;;;;5031715;28;20041;-62
2021/01/03 10:29:09;;;;;;;28.30;10.27;;;4.90;99.90;;;;;;5042055;28;20045;-60
2021/01/03 10:31:49;;;;;;;21.48;8.60;;;4.90;99.90;;;;;;5042596;28;20037;-60
2021/01/03 10:34:17;;;;;;;16.02;7.30;;;4.80;99.90;;;;;;5035877;28;20045;-60
2021/01/03 10:36:43;;;;;;;16.27;7.15;;;4.90;99.90;;;;;;5035723;28;20807;-60
2021/01/03 10:39:11;;;;;;;17.98;7.40;;;4.90;99.90;;;;;;5034328;28;20161;-61
2021/01/03 10:41:38;;;;;;;16.02;6.45;;;5.00;99.90;;;;;;5042019;28;20420;-60
2021/01/03 10:44:05;;;;;;;21.05;7.82;;;4.90;99.90;;;;;;5040094;28;20025;-60
2021/01/03 10:46:31;;;;;;;16.23;6.50;;;4.80;99.90;;;;;;5041868;28;20151;-61
2021/01/03 10:48:56;;;;;;;16.55;6.53;;;4.90;99.90;;;;;;5041318;28;20477;-60
2021/01/03 10:51:34;;;;;;;15.52;6.72;;;4.90;99.90;;;;;;5039919;28;20049;-62
2021/01/03 10:54:01;;;;;;;18.95;7.57;;;4.90;99.90;;;;;;5040598;28;20041;-60
2021/01/03 10:56:26;;;;;;;16.90;5.68;;;4.90;99.90;;;;;;5033425;28;20033;-60
2021/01/03 10:58:52;;;;;;;14.23;5.30;;;4.80;99.90;;;;;;5040823;28;21139;-60
2021/01/03 11:01:19;;;;;;;15.25;5.55;;;4.90;99.90;;;;;;5038203;28;20029;-61
2021/01/03 11:03:44;;;;;;;14.40;4.93;;;4.90;99.90;;;;;;5037339;28;20022;-60
2021/01/03 11:06:10;;;;;;;11.30;4.70;;;4.80;99.90;;;;;;5041641;28;20047;-60
2021/01/03 11:08:37;;;;;;;10.25;4.63;;;4.80;99.90;;;;;;5035538;28;20401;-61
2021/01/03 11:11:03;;;;;;;14.10;4.85;;;4.80;99.90;;;;;;5040554;28;20152;-61
2021/01/03 11:13:28;;;;;;;15.43;5.07;;;4.90;99.90;;;;;;5041320;28;20555;-60
2021/01/03 11:15:54;;;;;;;14.27;5.80;;;4.80;99.90;;;;;;5040000;28;20116;-60
2021/01/03 11:18:19;;;;;;;10.73;4.90;;;4.90;99.90;;;;;;5038675;28;20043;-60
2021/01/03 11:20:45;;;;;;;11.68;4.53;;;4.90;99.90;;;;;;5042757;28;20401;-61
2021/01/03 11:23:10;;;;;;;14.52;5.68;;;4.90;99.90;;;;;;5036724;28;20125;-60
2021/01/03 11:25:36;;;;;;;12.50;5.15;;;4.90;99.90;;;;;;5035085;28;20033;-61
2021/01/03 11:28:02;;;;;;;13.20;5.20;;;4.80;99.90;;;;;;5037874;28;20536;-62
2021/01/03 11:30:27;;;;;;;12.73;5.45;;;4.90;99.90;;;;;;5038471;28;20121;-60
2021/01/03 11:32:53;;;;;;;16.65;6.05;;;4.80;99.90;;;;;;5038701;28;20120;-60
2021/01/03 11:35:19;;;;;;;12.52;5.80;;;4.80;99.90;;;;;;5027646;28;20045;-61
2021/01/03 11:37:47;;;;;;;13.75;5.32;;;4.80;99.90;;;;;;5038667;28;20535;-60
2021/01/03 11:40:13;;;;;;;14.50;6.15;;;4.80;99.90;;;;;;5041143;28;20045;-61
2021/01/03 11:42:40;;;;;;;14.60;5.88;;;4.70;99.90;;;;;;5037113;28;20067;-60
2021/01/03 11:45:08;;;;;;;13.73;5.32;;;4.70;99.90;;;;;;5037863;28;20658;-60
2021/01/03 11:47:34;;;;;;;12.85;5.45;;;4.70;99.90;;;;;;5038284;28;20040;-60
2021/01/03 11:49:59;;;;;;;13.85;6.20;;;4.70;99.90;;;;;;5031438;28;20034;-60
2021/01/03 11:52:27;;;;;;;15.07;6.03;;;4.70;99.90;;;;;;5040015;28;20087;-60
2021/01/03 11:54:53;;;;;;;15.07;4.90;;;4.70;99.90;;;;;;5038241;28;20040;-60
2021/01/03 11:57:18;;;;;;;13.85;5.53;;;4.70;99.90;;;;;;5039981;28;20037;-60
2021/01/03 11:59:44;;;;;;;13.95;5.03;;;4.70;99.90;;;;;;5037206;28;20424;-60
2021/01/03 12:02:11;;;;;;;12.23;4.90;;;4.80;99.90;;;;;;5031887;28;20041;-61
2021/01/03 12:04:39;;;;;;;15.38;5.43;;;4.80;99.90;;;;;;5028359;28;20104;-63
2021/01/03 12:07:09;;;;;;;15.40;6.47;;;4.70;99.90;;;;;;5037002;28;20040;-60
2021/01/03 12:09:35;;;;;;;19.77;6.10;;;4.80;99.90;;;;;;5028418;28;20489;-61
2021/01/03 12:12:03;;;;;;;14.85;6.43;;;4.80;99.90;;;;;;5032072;28;20041;-60
2021/01/03 12:14:30;;;;;;;16.20;7.03;;;4.80;99.90;;;;;;5054544;28;20076;-60
2021/01/03 12:16:57;;;;;;;15.02;5.80;;;4.70;99.90;;;;;;5037081;28;20504;-60
2021/01/03 12:19:24;;;;;;;17.60;6.07;;;4.80;99.90;;;;;;5039562;28;20033;-59
2021/01/03 12:21:50;;;;;;;21.30;7.00;;;4.80;99.90;;;;;;5039787;28;20429;-60
2021/01/03 12:24:16;;;;;;;17.15;5.90;;;4.80;99.90;;;;;;5035689;28;20059;-60
2021/01/03 12:26:42;;;;;;;15.60;6.40;;;4.70;99.90;;;;;;5033702;28;20033;-61
2021/01/03 12:29:13;;;;;;;12.77;5.53;;;4.80;99.90;;;;;;5033965;28;20512;-60
2021/01/03 12:31:45;;;;;;;13.23;5.75;;;4.80;99.90;;;;;;5034586;28;20029;-61
2021/01/03 12:34:13;;;;;;;13.73;5.60;;;4.80;99.90;;;;;;5036147;28;20057;-60
2021/01/03 12:36:39;;;;;;;14.07;6.03;;;4.80;99.90;;;;;;5037706;28;20375;-60
2021/01/03 12:39:07;;;;;;;11.77;5.10;;;4.80;99.90;;;;;;5042074;28;20036;-61
2021/01/03 12:41:33;;;;;;;13.60;5.60;;;4.90;99.90;;;;;;5033488;28;20093;-61
2021/01/03 12:43:59;;;;;;;17.70;6.05;;;4.90;99.90;;;;;;5032438;28;20481;-60
2021/01/03 12:46:30;;;;;;;15.40;6.00;;;4.90;99.90;;;;;;5042745;28;20037;-60
2021/01/03 12:48:56;;;;;;;15.15;5.93;;;5.00;99.90;;;;;;5039135;28;20022;-60
2021/01/03 12:51:22;;;;;;;11.77;5.18;;;5.00;99.90;;;;;;5039087;28;20037;-60
2021/01/03 12:53:48;;;;;;;15.95;6.13;;;5.10;99.90;;;;;;5038448;28;20108;-60
2021/01/03 12:56:13;;;;;;;13.80;5.63;;;5.10;99.90;;;;;;5038049;28;20482;-60
2021/01/03 12:58:39;;;;;;;11.48;4.70;;;5.10;99.90;;;;;;5037403;28;20053;-63
2021/01/03 13:01:05;;;;;;;15.85;5.80;;;5.10;99.90;;;;;;5036771;28;20033;-62